sensor_id;sensor_type;location;lat;lon;timestamp;pressure;altitude;pressure_sealevel;temperature;humidity
65384;BME280;51986;52.788;41.368;2022-08-19T00:02:08;99431.97;;;16.21;74.52
65384;BME280;51986;52.788;41.368;2022-08-19T00:04:35;99403.66;;;16.14;73.98
65384;BME280;51986;52.788;41.368;2022-08-19T00:07:04;99423.56;;;16.10;74.74
65384;BME280;51986;52.788;41.368;2022-08-19T00:09:31;99400.59;;;16.29;74.43
65384;BME280;51986;52.788;41.368;2022-08-19T00:11:58;99420.91;;;16.23;74.89
65384;BME280;51986;52.788;41.368;2022-08-19T00:14:26;99396.09;;;16.13;74.76
65384;BME280;51986;52.788;41.368;2022-08-19T00:16:56;99421.56;;;16.27;73.87
65384;BME280;51986;52.788;41.368;2022-08-19T00:19:23;99418.59;;;16.25;74.53
65384;BME280;51986;52.788;41.368;2022-08-19T00:21:51;99440.75;;;16.34;74.44
65384;BME280;51986;52.788;41.368;2022-08-19T00:24:18;99420.16;;;16.22;74.31
65384;BME280;51986;52.788;41.368;2022-08-19T00:26:45;99426.25;;;16.23;74.56
65384;BME280;51986;52.788;41.368;2022-08-19T00:29:15;99426.56;;;16.25;74.23
65384;BME280;51986;52.788;41.368;2022-08-19T00:31:43;99430.63;;;16.42;74.19
65384;BME280;51986;52.788;41.368;2022-08-19T00:34:12;99442.75;;;16.43;74.06
65384;BME280;51986;52.788;41.368;2022-08-19T00:36:40;99431.47;;;16.26;74.45
65384;BME280;51986;52.788;41.368;2022-08-19T00:39:09;99445.13;;;16.28;74.07
65384;BME280;51986;52.788;41.368;2022-08-19T00:41:36;99412.19;;;16.35;74.46
65384;BME280;51986;52.788;41.368;2022-08-19T00:44:07;99426.78;;;16.30;74.51
65384;BME280;51986;52.788;41.368;2022-08-19T00:46:37;99427.44;;;16.47;73.75
65384;BME280;51986;52.788;41.368;2022-08-19T00:52:03;99424.66;;;16.38;74.43
65384;BME280;51986;52.788;41.368;2022-08-19T00:54:46;99396.88;;;16.39;74.10
65384;BME280;51986;52.788;41.368;2022-08-19T00:57:23;99424.72;;;16.22;74.66
65384;BME280;51986;52.788;41.368;2022-08-19T00:59:54;99413.03;;;16.32;74.69
65384;BME280;51986;52.788;41.368;2022-08-19T01:02:30;99409.00;;;16.27;74.76
65384;BME280;51986;52.788;41.368;2022-08-19T01:05:00;99402.19;;;16.26;74.02
65384;BME280;51986;52.788;41.368;2022-08-19T01:07:27;99390.25;;;16.05;75.25
65384;BME280;51986;52.788;41.368;2022-08-19T01:10:05;99399.72;;;15.81;76.33
65384;BME280;51986;52.788;41.368;2022-08-19T01:12:33;99388.66;;;15.95;75.96
65384;BME280;51986;52.788;41.368;2022-08-19T01:15:00;99392.28;;;16.14;75.84
65384;BME280;51986;52.788;41.368;2022-08-19T01:17:27;99382.81;;;16.00;76.47
65384;BME280;51986;52.788;41.368;2022-08-19T01:19:54;99394.84;;;16.05;76.23
65384;BME280;51986;52.788;41.368;2022-08-19T01:25:02;99407.94;;;16.25;75.92
65384;BME280;51986;52.788;41.368;2022-08-19T01:27:41;99386.53;;;16.15;75.92
65384;BME280;51986;52.788;41.368;2022-08-19T01:30:15;99404.59;;;16.08;76.74
65384;BME280;51986;52.788;41.368;2022-08-19T01:32:45;99383.09;;;15.77;77.28
65384;BME280;51986;52.788;41.368;2022-08-19T01:35:13;99396.22;;;16.09;77.00
65384;BME280;51986;52.788;41.368;2022-08-19T01:37:58;99402.06;;;15.91;77.32
65384;BME280;51986;52.788;41.368;2022-08-19T01:40:31;99390.16;;;15.96;76.91
65384;BME280;51986;52.788;41.368;2022-08-19T01:42:59;99383.00;;;15.67;78.27
65384;BME280;51986;52.788;41.368;2022-08-19T01:45:29;99389.69;;;15.72;78.59
65384;BME280;51986;52.788;41.368;2022-08-19T01:47:57;99384.28;;;15.76;78.39
65384;BME280;51986;52.788;41.368;2022-08-19T01:50:30;99384.03;;;15.57;79.03
65384;BME280;51986;52.788;41.368;2022-08-19T01:52:57;99393.38;;;15.49;79.46
65384;BME280;51986;52.788;41.368;2022-08-19T01:55:35;99389.94;;;15.36;79.78
65384;BME280;51986;52.788;41.368;2022-08-19T01:58:10;99391.53;;;15.33;80.16
65384;BME280;51986;52.788;41.368;2022-08-19T02:00:38;99377.84;;;15.48;80.00
65384;BME280;51986;52.788;41.368;2022-08-19T02:03:05;99386.72;;;15.70;79.41
65384;BME280;51986;52.788;41.368;2022-08-19T02:05:32;99394.47;;;15.64;78.76
65384;BME280;51986;52.788;41.368;2022-08-19T02:07:59;99403.81;;;15.56;79.37
65384;BME280;51986;52.788;41.368;2022-08-19T02:10:26;99393.84;;;15.60;79.59
65384;BME280;51986;52.788;41.368;2022-08-19T02:12:52;99415.72;;;15.52;79.03
65384;BME280;51986;52.788;41.368;2022-08-19T02:15:20;99409.97;;;15.53;79.75
65384;BME280;51986;52.788;41.368;2022-08-19T02:17:57;99406.41;;;15.73;78.84
65384;BME280;51986;52.788;41.368;2022-08-19T02:20:24;99395.53;;;15.67;78.74
65384;BME280;51986;52.788;41.368;2022-08-19T02:22:51;99388.41;;;15.51;79.09
65384;BME280;51986;52.788;41.368;2022-08-19T02:25:18;99407.00;;;15.51;78.75
65384;BME280;51986;52.788;41.368;2022-08-19T02:27:45;99397.66;;;15.59;79.27
65384;BME280;51986;52.788;41.368;2022-08-19T02:30:14;99418.34;;;15.81;78.22
65384;BME280;51986;52.788;41.368;2022-08-19T02:32:42;99418.72;;;15.66;79.33
65384;BME280;51986;52.788;41.368;2022-08-19T02:35:12;99418.81;;;15.63;78.97
65384;BME280;51986;52.788;41.368;2022-08-19T02:37:40;99415.16;;;15.86;77.94
65384;BME280;51986;52.788;41.368;2022-08-19T02:40:07;99432.50;;;16.03;77.42
65384;BME280;51986;52.788;41.368;2022-08-19T02:42:38;99422.38;;;15.85;78.30
65384;BME280;51986;52.788;41.368;2022-08-19T02:45:05;99424.81;;;15.92;78.02
65384;BME280;51986;52.788;41.368;2022-08-19T02:47:33;99422.25;;;15.89;78.62
65384;BME280;51986;52.788;41.368;2022-08-19T02:50:01;99430.69;;;16.00;77.64
65384;BME280;51986;52.788;41.368;2022-08-19T02:52:28;99439.84;;;15.99;77.79
65384;BME280;51986;52.788;41.368;2022-08-19T02:54:55;99447.59;;;15.81;78.88
65384;BME280;51986;52.788;41.368;2022-08-19T02:57:22;99436.84;;;15.97;78.47
65384;BME280;51986;52.788;41.368;2022-08-19T02:59:49;99416.72;;;15.71;78.61
65384;BME280;51986;52.788;41.368;2022-08-19T03:02:16;99419.41;;;15.96;78.16
65384;BME280;51986;52.788;41.368;2022-08-19T03:04:45;99415.56;;;15.72;78.59
65384;BME280;51986;52.788;41.368;2022-08-19T03:07:13;99413.81;;;15.52;79.24
65384;BME280;51986;52.788;41.368;2022-08-19T03:09:41;99395.59;;;15.51;79.59
65384;BME280;51986;52.788;41.368;2022-08-19T03:12:09;99418.22;;;15.72;79.28
65384;BME280;51986;52.788;41.368;2022-08-19T03:14:36;99404.94;;;15.97;78.15
65384;BME280;51986;52.788;41.368;2022-08-19T03:17:04;99408.00;;;15.83;78.41
65384;BME280;51986;52.788;41.368;2022-08-19T03:19:31;99378.34;;;15.84;77.97
65384;BME280;51986;52.788;41.368;2022-08-19T03:21:58;99396.94;;;15.72;78.48
65384;BME280;51986;52.788;41.368;2022-08-19T03:24:25;99380.44;;;15.77;78.58
65384;BME280;51986;52.788;41.368;2022-08-19T03:26:54;99364.69;;;15.69;78.36
65384;BME280;51986;52.788;41.368;2022-08-19T03:29:21;99387.25;;;15.78;78.47
65384;BME280;51986;52.788;41.368;2022-08-19T03:32:03;99370.38;;;15.84;78.23
65384;BME280;51986;52.788;41.368;2022-08-19T03:34:32;99370.34;;;15.97;77.53
65384;BME280;51986;52.788;41.368;2022-08-19T03:37:04;99389.38;;;15.70;78.54
65384;BME280;51986;52.788;41.368;2022-08-19T03:39:31;99399.84;;;15.90;77.95
65384;BME280;51986;52.788;41.368;2022-08-19T03:41:59;99381.84;;;15.81;78.67
65384;BME280;51986;52.788;41.368;2022-08-19T03:44:45;99392.91;;;16.05;77.33
65384;BME280;51986;52.788;41.368;2022-08-19T03:47:12;99414.72;;;15.87;78.09
65384;BME280;51986;52.788;41.368;2022-08-19T03:49:39;99394.84;;;16.05;77.66
65384;BME280;51986;52.788;41.368;2022-08-19T03:52:06;99400.03;;;16.21;77.26
65384;BME280;51986;52.788;41.368;2022-08-19T03:54:34;99373.44;;;15.83;78.31
65384;BME280;51986;52.788;41.368;2022-08-19T03:57:02;99379.28;;;15.90;77.91
65384;BME280;51986;52.788;41.368;2022-08-19T03:59:32;99416.06;;;15.79;78.71
65384;BME280;51986;52.788;41.368;2022-08-19T04:02:02;99402.38;;;15.81;79.24
65384;BME280;51986;52.788;41.368;2022-08-19T04:04:29;99436.66;;;16.04;78.50
65384;BME280;51986;52.788;41.368;2022-08-19T04:06:57;99423.56;;;15.97;78.60
65384;BME280;51986;52.788;41.368;2022-08-19T04:09:25;99432.69;;;15.71;80.42
65384;BME280;51986;52.788;41.368;2022-08-19T04:11:54;99410.34;;;15.81;79.93
65384;BME280;51986;52.788;41.368;2022-08-19T04:14:25;99416.38;;;15.68;79.99
65384;BME280;51986;52.788;41.368;2022-08-19T04:16:52;99451.72;;;15.82;79.41
65384;BME280;51986;52.788;41.368;2022-08-19T04:19:20;99448.72;;;15.67;80.42
65384;BME280;51986;52.788;41.368;2022-08-19T04:21:49;99442.50;;;15.86;79.71
65384;BME280;51986;52.788;41.368;2022-08-19T04:24:17;99417.25;;;15.78;79.94
65384;BME280;51986;52.788;41.368;2022-08-19T04:26:45;99419.81;;;15.82;79.91
65384;BME280;51986;52.788;41.368;2022-08-19T04:29:15;99451.00;;;15.81;79.74
65384;BME280;51986;52.788;41.368;2022-08-19T04:31:43;99423.84;;;15.74;80.44
65384;BME280;51986;52.788;41.368;2022-08-19T04:34:13;99429.06;;;15.77;80.04
65384;BME280;51986;52.788;41.368;2022-08-19T04:36:42;99431.09;;;15.86;79.95
65384;BME280;51986;52.788;41.368;2022-08-19T04:39:14;99431.16;;;15.69;80.34
65384;BME280;51986;52.788;41.368;2022-08-19T04:41:42;99434.91;;;15.72;80.40
65384;BME280;51986;52.788;41.368;2022-08-19T04:44:10;99417.16;;;15.82;80.14
65384;BME280;51986;52.788;41.368;2022-08-19T04:46:38;99408.53;;;16.03;79.22
65384;BME280;51986;52.788;41.368;2022-08-19T04:49:21;99389.19;;;16.15;78.83
65384;BME280;51986;52.788;41.368;2022-08-19T04:51:50;99412.25;;;15.93;79.58
65384;BME280;51986;52.788;41.368;2022-08-19T04:54:18;99413.97;;;15.87;79.89
65384;BME280;51986;52.788;41.368;2022-08-19T04:57:07;99419.09;;;16.07;79.30
65384;BME280;51986;52.788;41.368;2022-08-19T04:59:36;99410.69;;;16.08;79.10
65384;BME280;51986;52.788;41.368;2022-08-19T05:02:03;99412.94;;;16.23;78.49
65384;BME280;51986;52.788;41.368;2022-08-19T05:04:30;99411.00;;;15.98;79.27
65384;BME280;51986;52.788;41.368;2022-08-19T05:06:57;99398.44;;;16.11;79.00
65384;BME280;51986;52.788;41.368;2022-08-19T05:09:28;99397.06;;;16.06;78.80
65384;BME280;51986;52.788;41.368;2022-08-19T05:12:15;99400.28;;;16.27;77.45
65384;BME280;51986;52.788;41.368;2022-08-19T05:14:43;99381.94;;;16.03;79.25
65384;BME280;51986;52.788;41.368;2022-08-19T05:17:10;99409.41;;;16.00;79.14
65384;BME280;51986;52.788;41.368;2022-08-19T05:19:54;99392.16;;;15.92;79.43
65384;BME280;51986;52.788;41.368;2022-08-19T05:22:21;99362.78;;;15.83;79.39
65384;BME280;51986;52.788;41.368;2022-08-19T05:24:48;99400.97;;;15.89;79.34
65384;BME280;51986;52.788;41.368;2022-08-19T05:27:38;99380.78;;;15.91;79.49
65384;BME280;51986;52.788;41.368;2022-08-19T05:30:06;99397.16;;;16.03;79.37
65384;BME280;51986;52.788;41.368;2022-08-19T05:32:34;99412.28;;;16.18;78.46
65384;BME280;51986;52.788;41.368;2022-08-19T05:35:02;99407.50;;;16.13;78.91
65384;BME280;51986;52.788;41.368;2022-08-19T05:37:29;99384.28;;;16.01;78.90
65384;BME280;51986;52.788;41.368;2022-08-19T05:39:59;99388.13;;;16.00;78.52
65384;BME280;51986;52.788;41.368;2022-08-19T05:42:26;99448.50;;;16.29;78.24
65384;BME280;51986;52.788;41.368;2022-08-19T05:44:55;99423.38;;;16.30;78.15
65384;BME280;51986;52.788;41.368;2022-08-19T05:47:21;99416.13;;;16.43;78.07
65384;BME280;51986;52.788;41.368;2022-08-19T05:49:48;99422.28;;;16.14;78.43
65384;BME280;51986;52.788;41.368;2022-08-19T05:52:15;99432.00;;;16.34;77.85
65384;BME280;51986;52.788;41.368;2022-08-19T05:54:45;99433.69;;;16.40;77.96
65384;BME280;51986;52.788;41.368;2022-08-19T05:57:16;99452.44;;;16.37;77.76
65384;BME280;51986;52.788;41.368;2022-08-19T05:59:44;99454.16;;;16.56;77.23
65384;BME280;51986;52.788;41.368;2022-08-19T06:02:11;99473.09;;;16.58;76.92
65384;BME280;51986;52.788;41.368;2022-08-19T06:04:38;99463.94;;;16.59;76.77
65384;BME280;51986;52.788;41.368;2022-08-19T06:07:06;99456.38;;;16.45;77.51
65384;BME280;51986;52.788;41.368;2022-08-19T06:09:39;99463.84;;;16.37;78.24
65384;BME280;51986;52.788;41.368;2022-08-19T06:12:09;99463.72;;;16.41;77.92
65384;BME280;51986;52.788;41.368;2022-08-19T06:14:36;99474.59;;;16.34;77.92
65384;BME280;51986;52.788;41.368;2022-08-19T06:17:07;99505.16;;;16.29;78.02
65384;BME280;51986;52.788;41.368;2022-08-19T06:19:35;99498.97;;;16.45;77.96
65384;BME280;51986;52.788;41.368;2022-08-19T06:22:07;99467.69;;;16.24;77.67
65384;BME280;51986;52.788;41.368;2022-08-19T06:24:34;99485.47;;;16.39;77.14
65384;BME280;51986;52.788;41.368;2022-08-19T06:27:01;99495.56;;;16.44;77.45
65384;BME280;51986;52.788;41.368;2022-08-19T06:29:38;99503.78;;;16.63;77.32
65384;BME280;51986;52.788;41.368;2022-08-19T06:32:05;99497.28;;;16.38;77.21
65384;BME280;51986;52.788;41.368;2022-08-19T06:34:34;99497.69;;;16.37;77.94
65384;BME280;51986;52.788;41.368;2022-08-19T06:37:01;99520.91;;;16.36;77.89
65384;BME280;51986;52.788;41.368;2022-08-19T06:39:31;99524.75;;;16.61;77.05
65384;BME280;51986;52.788;41.368;2022-08-19T06:42:00;99526.03;;;16.43;77.99
65384;BME280;51986;52.788;41.368;2022-08-19T06:44:30;99532.09;;;16.44;78.20
65384;BME280;51986;52.788;41.368;2022-08-19T06:47:12;99521.22;;;16.51;77.35
65384;BME280;51986;52.788;41.368;2022-08-19T06:50:23;99523.81;;;16.67;77.08
65384;BME280;51986;52.788;41.368;2022-08-19T06:52:53;99545.63;;;16.50;77.90
65384;BME280;51986;52.788;41.368;2022-08-19T06:55:20;99548.28;;;16.50;77.86
65384;BME280;51986;52.788;41.368;2022-08-19T06:57:47;99529.44;;;16.44;78.71
65384;BME280;51986;52.788;41.368;2022-08-19T07:00:14;99532.72;;;16.61;77.44
65384;BME280;51986;52.788;41.368;2022-08-19T07:02:42;99552.34;;;16.54;78.07
65384;BME280;51986;52.788;41.368;2022-08-19T07:05:21;99548.63;;;16.64;77.19
65384;BME280;51986;52.788;41.368;2022-08-19T07:07:48;99555.53;;;16.75;77.62
65384;BME280;51986;52.788;41.368;2022-08-19T07:10:17;99534.03;;;16.56;77.66
65384;BME280;51986;52.788;41.368;2022-08-19T07:12:51;99564.16;;;16.91;76.75
65384;BME280;51986;52.788;41.368;2022-08-19T07:15:24;99623.22;;;16.90;76.77
65384;BME280;51986;52.788;41.368;2022-08-19T07:17:55;99576.31;;;16.80;77.19
65384;BME280;51986;52.788;41.368;2022-08-19T07:20:23;99557.78;;;16.76;77.00
65384;BME280;51986;52.788;41.368;2022-08-19T07:22:55;99579.94;;;16.73;77.14
65384;BME280;51986;52.788;41.368;2022-08-19T07:25:22;99576.41;;;16.89;76.80
65384;BME280;51986;52.788;41.368;2022-08-19T07:27:59;99568.44;;;16.89;76.68
65384;BME280;51986;52.788;41.368;2022-08-19T07:30:28;99563.41;;;16.65;77.70
65384;BME280;51986;52.788;41.368;2022-08-19T07:33:00;99576.66;;;16.56;77.83
65384;BME280;51986;52.788;41.368;2022-08-19T07:35:32;99572.69;;;16.61;78.00
65384;BME280;51986;52.788;41.368;2022-08-19T07:38:13;99551.81;;;16.47;78.41
65384;BME280;51986;52.788;41.368;2022-08-19T07:41:14;99607.84;;;16.68;78.78
65384;BME280;51986;52.788;41.368;2022-08-19T07:43:55;99607.00;;;16.59;78.54
65384;BME280;51986;52.788;41.368;2022-08-19T07:46:28;99602.41;;;16.59;78.68
65384;BME280;51986;52.788;41.368;2022-08-19T07:48:55;99613.69;;;16.51;79.03
65384;BME280;51986;52.788;41.368;2022-08-19T07:51:22;99616.06;;;16.61;78.45
65384;BME280;51986;52.788;41.368;2022-08-19T07:54:02;99600.09;;;16.61;78.67
65384;BME280;51986;52.788;41.368;2022-08-19T07:56:30;99610.09;;;16.57;78.89
65384;BME280;51986;52.788;41.368;2022-08-19T07:58:57;99614.03;;;16.65;78.02
65384;BME280;51986;52.788;41.368;2022-08-19T08:01:26;99630.25;;;16.84;78.17
65384;BME280;51986;52.788;41.368;2022-08-19T08:03:56;99622.56;;;16.73;78.54
65384;BME280;51986;52.788;41.368;2022-08-19T08:06:25;99631.81;;;16.68;79.02
65384;BME280;51986;52.788;41.368;2022-08-19T08:08:54;99643.34;;;16.78;78.37
65384;BME280;51986;52.788;41.368;2022-08-19T08:11:34;99647.63;;;16.76;78.40
65384;BME280;51986;52.788;41.368;2022-08-19T08:14:03;99623.22;;;16.77;77.88
65384;BME280;51986;52.788;41.368;2022-08-19T08:16:34;99651.09;;;16.60;79.05
65384;BME280;51986;52.788;41.368;2022-08-19T08:19:06;99656.75;;;16.75;78.16
65384;BME280;51986;52.788;41.368;2022-08-19T08:21:55;99650.69;;;16.74;77.93
65384;BME280;51986;52.788;41.368;2022-08-19T08:24:24;99606.25;;;16.58;78.89
65384;BME280;51986;52.788;41.368;2022-08-19T08:26:54;99656.53;;;16.69;78.18
65384;BME280;51986;52.788;41.368;2022-08-19T08:29:24;99658.34;;;16.59;78.92
65384;BME280;51986;52.788;41.368;2022-08-19T08:31:51;99679.78;;;16.68;78.81
65384;BME280;51986;52.788;41.368;2022-08-19T08:34:25;99641.31;;;16.82;77.74
65384;BME280;51986;52.788;41.368;2022-08-19T08:36:58;99665.09;;;16.89;77.22
65384;BME280;51986;52.788;41.368;2022-08-19T08:39:28;99668.72;;;16.95;77.36
65384;BME280;51986;52.788;41.368;2022-08-19T08:45:00;99658.16;;;16.66;78.37
65384;BME280;51986;52.788;41.368;2022-08-19T08:47:37;99683.31;;;16.78;77.96
65384;BME280;51986;52.788;41.368;2022-08-19T08:50:13;99677.31;;;16.74;77.89
65384;BME280;51986;52.788;41.368;2022-08-19T08:52:45;99678.44;;;17.02;77.44
65384;BME280;51986;52.788;41.368;2022-08-19T08:55:20;99670.16;;;16.58;78.55
65384;BME280;51986;52.788;41.368;2022-08-19T09:00:19;99667.56;;;16.96;76.80
65384;BME280;51986;52.788;41.368;2022-08-19T09:02:48;99671.09;;;17.06;77.49
65384;BME280;51986;52.788;41.368;2022-08-19T09:05:18;99688.81;;;17.26;76.69
65384;BME280;51986;52.788;41.368;2022-08-19T09:07:57;99689.22;;;17.37;75.77
65384;BME280;51986;52.788;41.368;2022-08-19T09:10:44;99663.50;;;17.56;75.31
65384;BME280;51986;52.788;41.368;2022-08-19T09:15:52;99682.53;;;17.80;73.51
65384;BME280;51986;52.788;41.368;2022-08-19T09:18:21;99666.34;;;17.74;74.12
65384;BME280;51986;52.788;41.368;2022-08-19T09:20:48;99684.91;;;17.78;74.17
65384;BME280;51986;52.788;41.368;2022-08-19T09:23:15;99689.13;;;17.53;74.51
65384;BME280;51986;52.788;41.368;2022-08-19T09:25:42;99699.97;;;17.71;73.76
65384;BME280;51986;52.788;41.368;2022-08-19T09:28:09;99681.13;;;17.53;74.69
65384;BME280;51986;52.788;41.368;2022-08-19T09:30:48;99705.41;;;17.68;74.68
65384;BME280;51986;52.788;41.368;2022-08-19T09:33:18;99711.97;;;17.29;75.69
65384;BME280;51986;52.788;41.368;2022-08-19T09:35:45;99700.72;;;17.46;75.09
65384;BME280;51986;52.788;41.368;2022-08-19T09:38:23;99713.25;;;17.24;75.54
65384;BME280;51986;52.788;41.368;2022-08-19T09:40:50;99691.03;;;17.40;74.51
65384;BME280;51986;52.788;41.368;2022-08-19T09:43:17;99701.81;;;17.24;75.26
65384;BME280;51986;52.788;41.368;2022-08-19T09:46:03;99690.25;;;17.01;75.28
65384;BME280;51986;52.788;41.368;2022-08-19T09:48:34;99707.31;;;17.16;74.91
65384;BME280;51986;52.788;41.368;2022-08-19T09:51:06;99699.97;;;17.08;75.13
65384;BME280;51986;52.788;41.368;2022-08-19T09:53:38;99681.53;;;17.01;75.88
65384;BME280;51986;52.788;41.368;2022-08-19T09:56:08;99685.94;;;17.20;75.56
65384;BME280;51986;52.788;41.368;2022-08-19T09:58:36;99695.19;;;17.41;74.96
65384;BME280;51986;52.788;41.368;2022-08-19T10:01:05;99687.22;;;17.28;75.02
65384;BME280;51986;52.788;41.368;2022-08-19T10:03:35;99715.16;;;17.24;75.83
65384;BME280;51986;52.788;41.368;2022-08-19T10:06:04;99702.44;;;17.53;74.80
65384;BME280;51986;52.788;41.368;2022-08-19T10:08:40;99710.34;;;17.44;74.85
65384;BME280;51986;52.788;41.368;2022-08-19T10:11:16;99708.13;;;17.42;74.38
65384;BME280;51986;52.788;41.368;2022-08-19T10:14:03;99724.41;;;17.70;73.13
65384;BME280;51986;52.788;41.368;2022-08-19T10:16:42;99734.22;;;17.86;73.33
65384;BME280;51986;52.788;41.368;2022-08-19T10:19:14;99736.34;;;17.78;72.40
65384;BME280;51986;52.788;41.368;2022-08-19T10:21:53;99752.94;;;17.95;72.39
65384;BME280;51986;52.788;41.368;2022-08-19T10:24:28;99751.06;;;17.95;71.98
65384;BME280;51986;52.788;41.368;2022-08-19T10:26:56;99739.09;;;18.00;71.24
65384;BME280;51986;52.788;41.368;2022-08-19T10:29:26;99763.38;;;18.28;71.08
65384;BME280;51986;52.788;41.368;2022-08-19T10:32:04;99757.53;;;17.94;72.03
65384;BME280;51986;52.788;41.368;2022-08-19T10:34:37;99754.66;;;18.14;71.80
65384;BME280;51986;52.788;41.368;2022-08-19T10:37:16;99739.97;;;18.32;71.16
65384;BME280;51986;52.788;41.368;2022-08-19T10:39:59;99766.53;;;18.48;70.14
65384;BME280;51986;52.788;41.368;2022-08-19T10:42:26;99780.69;;;18.80;69.84
65384;BME280;51986;52.788;41.368;2022-08-19T10:44:53;99775.34;;;18.58;70.35
65384;BME280;51986;52.788;41.368;2022-08-19T10:47:19;99753.09;;;18.83;69.18
65384;BME280;51986;52.788;41.368;2022-08-19T10:49:54;99793.09;;;18.95;68.72
65384;BME280;51986;52.788;41.368;2022-08-19T10:52:21;99770.19;;;19.07;68.25
65384;BME280;51986;52.788;41.368;2022-08-19T10:55:06;99792.88;;;19.24;68.18
65384;BME280;51986;52.788;41.368;2022-08-19T10:57:35;99802.38;;;18.82;69.02
65384;BME280;51986;52.788;41.368;2022-08-19T11:00:23;99778.81;;;19.11;67.66
65384;BME280;51986;52.788;41.368;2022-08-19T11:02:53;99776.25;;;19.30;67.28
65384;BME280;51986;52.788;41.368;2022-08-19T11:05:20;99813.25;;;19.31;68.25
65384;BME280;51986;52.788;41.368;2022-08-19T11:07:50;99775.47;;;19.20;68.03
65384;BME280;51986;52.788;41.368;2022-08-19T11:10:17;99784.78;;;19.15;67.91
65384;BME280;51986;52.788;41.368;2022-08-19T11:12:48;99789.50;;;18.89;68.34
65384;BME280;51986;52.788;41.368;2022-08-19T11:15:15;99781.81;;;19.13;67.39
65384;BME280;51986;52.788;41.368;2022-08-19T11:17:43;99794.25;;;19.07;67.36
65384;BME280;51986;52.788;41.368;2022-08-19T11:20:14;99788.59;;;18.83;68.00
65384;BME280;51986;52.788;41.368;2022-08-19T11:22:42;99761.56;;;19.34;67.03
65384;BME280;51986;52.788;41.368;2022-08-19T11:25:10;99766.53;;;19.23;67.11
65384;BME280;51986;52.788;41.368;2022-08-19T11:27:39;99792.75;;;19.06;67.90
65384;BME280;51986;52.788;41.368;2022-08-19T11:30:06;99793.94;;;19.05;67.69
65384;BME280;51986;52.788;41.368;2022-08-19T11:32:38;99797.69;;;19.39;66.28
65384;BME280;51986;52.788;41.368;2022-08-19T11:35:05;99783.28;;;19.14;66.71
65384;BME280;51986;52.788;41.368;2022-08-19T11:37:33;99795.44;;;19.37;66.71
65384;BME280;51986;52.788;41.368;2022-08-19T11:39:59;99792.59;;;19.63;65.72
65384;BME280;51986;52.788;41.368;2022-08-19T11:42:27;99791.09;;;19.31;65.99
65384;BME280;51986;52.788;41.368;2022-08-19T11:44:57;99792.88;;;19.65;66.19
65384;BME280;51986;52.788;41.368;2022-08-19T11:47:25;99802.59;;;19.40;66.34
65384;BME280;51986;52.788;41.368;2022-08-19T11:49:52;99807.97;;;19.49;65.73
65384;BME280;51986;52.788;41.368;2022-08-19T11:52:22;99814.09;;;19.50;65.51
65384;BME280;51986;52.788;41.368;2022-08-19T11:54:49;99826.28;;;19.20;66.43
65384;BME280;51986;52.788;41.368;2022-08-19T11:57:16;99812.63;;;19.27;67.08
65384;BME280;51986;52.788;41.368;2022-08-19T11:59:50;99831.91;;;19.22;66.65
65384;BME280;51986;52.788;41.368;2022-08-19T12:02:20;99814.38;;;19.21;66.83
65384;BME280;51986;52.788;41.368;2022-08-19T12:04:47;99810.91;;;19.11;66.76
65384;BME280;51986;52.788;41.368;2022-08-19T12:07:15;99837.00;;;19.29;66.30
65384;BME280;51986;52.788;41.368;2022-08-19T12:09:42;99845.22;;;19.35;65.27
65384;BME280;51986;52.788;41.368;2022-08-19T12:12:15;99858.56;;;18.91;67.03
65384;BME280;51986;52.788;41.368;2022-08-19T12:14:42;99848.03;;;19.09;66.38
65384;BME280;51986;52.788;41.368;2022-08-19T12:19:56;99843.97;;;19.27;66.64
65384;BME280;51986;52.788;41.368;2022-08-19T12:22:23;99875.03;;;18.67;67.91
65384;BME280;51986;52.788;41.368;2022-08-19T12:24:49;99835.72;;;19.12;66.69
65384;BME280;51986;52.788;41.368;2022-08-19T12:27:17;99850.47;;;19.16;66.46
65384;BME280;51986;52.788;41.368;2022-08-19T12:30:08;99827.31;;;19.22;66.98
65384;BME280;51986;52.788;41.368;2022-08-19T12:32:39;99844.28;;;19.29;66.40
65384;BME280;51986;52.788;41.368;2022-08-19T12:35:09;99829.41;;;19.28;66.21
65384;BME280;51986;52.788;41.368;2022-08-19T12:37:36;99801.31;;;19.23;65.99
65384;BME280;51986;52.788;41.368;2022-08-19T12:40:03;99834.53;;;19.35;66.34
65384;BME280;51986;52.788;41.368;2022-08-19T12:42:30;99835.78;;;19.21;66.62
65384;BME280;51986;52.788;41.368;2022-08-19T12:44:57;99824.13;;;19.37;65.71
65384;BME280;51986;52.788;41.368;2022-08-19T12:47:24;99812.72;;;19.45;65.33
65384;BME280;51986;52.788;41.368;2022-08-19T12:49:51;99834.16;;;19.55;66.09
65384;BME280;51986;52.788;41.368;2022-08-19T12:52:24;99825.06;;;19.52;65.43
65384;BME280;51986;52.788;41.368;2022-08-19T12:54:52;99814.72;;;19.63;65.48
65384;BME280;51986;52.788;41.368;2022-08-19T12:57:24;99816.41;;;19.39;65.92
65384;BME280;51986;52.788;41.368;2022-08-19T12:59:58;99823.66;;;19.38;65.63
65384;BME280;51986;52.788;41.368;2022-08-19T13:02:25;99810.41;;;19.25;65.82
65384;BME280;51986;52.788;41.368;2022-08-19T13:04:55;99832.97;;;19.24;66.08
65384;BME280;51986;52.788;41.368;2022-08-19T13:07:22;99828.69;;;19.27;65.60
65384;BME280;51986;52.788;41.368;2022-08-19T13:09:54;99808.75;;;19.28;65.59
65384;BME280;51986;52.788;41.368;2022-08-19T13:12:24;99808.53;;;19.13;66.14
65384;BME280;51986;52.788;41.368;2022-08-19T13:14:51;99826.28;;;18.98;66.13
65384;BME280;51986;52.788;41.368;2022-08-19T13:17:19;99815.00;;;19.25;65.18
65384;BME280;51986;52.788;41.368;2022-08-19T13:19:46;99825.81;;;18.99;66.62
65384;BME280;51986;52.788;41.368;2022-08-19T13:22:13;99809.22;;;18.83;67.26
65384;BME280;51986;52.788;41.368;2022-08-19T13:24:40;99830.22;;;18.93;66.29